Green Oak Township, Michigan
Current Conditions -  °F | °C
As of 4:55 AM on Saturday 25 Oct 2014 (Local Time) from KOZW Reporting Station
Haze Haze  
Wind Chill: 45°   Ceiling: 8500
Heat Index: 48°   Visibility: 5mi
Dew Point: 47°   Wind: 6mph
Humidity: 96%   Direction: 200°SSW
Pressure: 29.86"   Gusts: NA
Location:  42.5333°N, 83.7735°W
Report Text: KOZW 250855Z AUTO 20005KT 5SM BR OVC085 09/08 A2986 RMK AO2 T00890083
Loading
Personal Weather Stations






























Interactive Weather Map
Tropical Storm Tracking
New forecast layout! Learn more

10-Day Weather Forecast

Advertisements
Track Severe Weather on mobile